Time;durP1;ratioP1;P1;durP2;ratioP2;P2;SDS_P1;SDS_P2;PMS_P1;PMS_P2;Temp;Humidity;BMP_temperature;BMP_pressure;BME280_temperature;BME280_humidity;BME280_pressure;Samples;Min_cycle;Max_cycle;Signal;HPM_P1;HPM_P2
2022/12/07 00:01:25;;;;;;;2.92;1.40;;;19.10;61.40;;;;;;5044449;28;20333;-68
2022/12/07 00:03:53;;;;;;;3.58;1.27;;;19.00;61.30;;;;;;5043095;28;20501;-69
2022/12/07 00:06:20;;;;;;;2.40;1.50;;;19.00;61.30;;;;;;5038901;28;20025;-69
2022/12/07 00:08:46;;;;;;;2.67;1.27;;;19.10;61.30;;;;;;5050158;28;20022;-69
2022/12/07 00:11:18;;;;;;;3.25;1.73;;;19.10;61.30;;;;;;5051849;28;20469;-69
2022/12/07 00:13:44;;;;;;;2.45;1.23;;;19.10;61.20;;;;;;5054411;28;20020;-69
2022/12/07 00:16:16;;;;;;;2.45;1.27;;;19.00;61.20;;;;;;5055859;28;20024;-69
2022/12/07 00:18:42;;;;;;;2.53;1.35;;;19.00;61.20;;;;;;5048554;28;20032;-69
2022/12/07 00:21:12;;;;;;;2.80;1.40;;;19.00;61.30;;;;;;5043537;28;20052;-69
2022/12/07 00:23:39;;;;;;;2.22;1.25;;;19.10;61.30;;;;;;5046004;28;20167;-67
2022/12/07 00:26:14;;;;;;;2.60;1.45;;;19.00;61.70;;;;;;5047905;28;20029;-69
2022/12/07 00:28:40;;;;;;;2.10;1.25;;;19.00;61.20;;;;;;5047542;28;20104;-69
2022/12/07 00:31:10;;;;;;;2.20;1.30;;;19.00;61.20;;;;;;5050284;28;20020;-67
2022/12/07 00:33:36;;;;;;;2.00;1.15;;;19.00;61.20;;;;;;5052528;28;20033;-67
2022/12/07 00:36:04;;;;;;;2.42;1.40;;;19.00;61.30;;;;;;5052470;28;20112;-67
2022/12/07 00:38:32;;;;;;;1.85;1.10;;;19.00;61.20;;;;;;5051974;28;20033;-67
2022/12/07 00:40:59;;;;;;;2.83;1.30;;;19.00;61.10;;;;;;5049641;28;20021;-67
2022/12/07 00:43:25;;;;;;;1.95;1.38;;;19.00;61.20;;;;;;5051773;28;20385;-67
2022/12/07 00:45:52;;;;;;;1.90;1.10;;;19.00;61.10;;;;;;5054166;28;20083;-67
2022/12/07 00:48:17;;;;;;;2.42;1.30;;;19.00;61.10;;;;;;5049405;28;20021;-67
2022/12/07 00:50:43;;;;;;;2.03;1.30;;;19.00;61.10;;;;;;5046388;28;20028;-69
2022/12/07 00:53:08;;;;;;;2.35;1.20;;;19.00;61.10;;;;;;5053037;28;20111;-69
2022/12/07 00:55:37;;;;;;;1.77;1.15;;;19.00;61.10;;;;;;5050919;28;20036;-67
2022/12/07 00:58:03;;;;;;;1.27;1.00;;;19.00;61.10;;;;;;5050626;28;20063;-69
2022/12/07 01:00:33;;;;;;;1.50;1.00;;;19.00;61.10;;;;;;5047605;28;20510;-69
2022/12/07 01:02:58;;;;;;;2.45;1.30;;;19.00;61.10;;;;;;5051962;28;20443;-69
2022/12/07 01:05:26;;;;;;;2.15;1.20;;;19.00;61.10;;;;;;5049572;28;20033;-68
2022/12/07 01:07:52;;;;;;;1.77;1.23;;;18.90;61.00;;;;;;5048644;28;20021;-67
2022/12/07 01:10:18;;;;;;;2.00;1.17;;;18.90;61.00;;;;;;5036742;28;20388;-67
2022/12/07 01:12:43;;;;;;;1.98;1.30;;;18.90;61.10;;;;;;5050160;28;20025;-67
2022/12/07 01:15:09;;;;;;;2.15;1.23;;;18.90;60.90;;;;;;5053296;28;20029;-67
2022/12/07 01:17:35;;;;;;;2.00;1.15;;;18.90;61.00;;;;;;5054091;28;20040;-67
2022/12/07 01:20:01;;;;;;;2.33;1.10;;;18.90;60.90;;;;;;5054849;28;20392;-67
2022/12/07 01:22:27;;;;;;;1.70;1.15;;;18.90;61.00;;;;;;5055269;28;20044;-67
2022/12/07 01:24:53;;;;;;;1.98;1.20;;;18.90;61.00;;;;;;5048949;28;20417;-68
2022/12/07 01:27:19;;;;;;;1.45;1.05;;;18.90;61.00;;;;;;5050140;28;20060;-67
2022/12/07 01:29:44;;;;;;;2.38;1.10;;;18.90;61.60;;;;;;5045429;28;20021;-67
2022/12/07 01:32:10;;;;;;;1.80;1.10;;;18.90;61.00;;;;;;5045174;28;20028;-67
2022/12/07 01:34:36;;;;;;;2.20;1.38;;;18.90;61.00;;;;;;5055086;28;20036;-68
2022/12/07 01:37:02;;;;;;;1.88;1.20;;;18.90;61.00;;;;;;5055187;28;20039;-67
2022/12/07 01:39:27;;;;;;;2.17;1.30;;;18.90;60.90;;;;;;5049536;28;20472;-68
2022/12/07 01:41:53;;;;;;;1.83;1.10;;;18.90;61.60;;;;;;5052829;28;20039;-67
2022/12/07 01:44:22;;;;;;;1.95;1.10;;;18.90;60.90;;;;;;5045697;28;20380;-68
2022/12/07 01:46:57;;;;;;;1.75;1.00;;;18.90;61.00;;;;;;5047226;28;20100;-68
2022/12/07 01:49:45;;;;;;;1.95;1.20;;;18.90;60.90;;;;;;5054815;28;20052;-67
2022/12/07 01:52:33;;;;;;;2.83;1.00;;;18.90;61.00;;;;;;5054002;28;20531;-68
2022/12/07 01:55:05;;;;;;;2.25;1.20;;;18.90;60.90;;;;;;5048649;28;20025;-68
2022/12/07 01:57:34;;;;;;;1.80;1.15;;;18.90;61.00;;;;;;5054575;28;20403;-67
2022/12/07 02:00:01;;;;;;;1.83;1.00;;;18.80;60.90;;;;;;5043180;28;20064;-67
2022/12/07 02:02:33;;;;;;;1.73;1.10;;;18.90;60.90;;;;;;5055422;28;20036;-68
2022/12/07 02:05:01;;;;;;;1.75;1.20;;;18.80;60.90;;;;;;5060234;28;20035;-68
2022/12/07 02:07:28;;;;;;;1.77;1.10;;;18.80;60.90;;;;;;5051783;28;20464;-68
2022/12/07 02:09:54;;;;;;;1.88;1.00;;;18.80;60.90;;;;;;5055792;28;20028;-68
2022/12/07 02:12:21;;;;;;;2.33;1.10;;;18.80;60.90;;;;;;5049772;28;20026;-67
2022/12/07 02:14:48;;;;;;;1.63;1.20;;;18.80;60.90;;;;;;5051572;28;20024;-67
2022/12/07 02:17:24;;;;;;;1.63;1.10;;;18.80;60.90;;;;;;5054876;28;20384;-67
2022/12/07 02:20:23;;;;;;;1.17;0.90;;;18.80;60.90;;;;;;5052844;28;20083;-68
2022/12/07 02:22:54;;;;;;;1.73;1.00;;;18.80;60.90;;;;;;5052520;28;20105;-67
2022/12/07 02:25:22;;;;;;;1.90;1.20;;;18.80;60.90;;;;;;5055614;28;20436;-68
2022/12/07 02:28:06;;;;;;;1.52;1.13;;;18.80;60.80;;;;;;5051824;28;20021;-68
2022/12/07 02:30:44;;;;;;;1.48;0.98;;;18.80;60.90;;;;;;5054936;28;20035;-68
2022/12/07 02:33:24;;;;;;;1.70;1.20;;;18.80;60.90;;;;;;5044193;28;20123;-68
2022/12/07 02:36:11;;;;;;;1.10;0.85;;;18.80;60.90;;;;;;5048129;28;20033;-68
2022/12/07 02:38:48;;;;;;;1.50;1.08;;;18.80;60.90;;;;;;5051659;28;20451;-67
2022/12/07 02:41:21;;;;;;;1.50;1.10;;;18.80;60.90;;;;;;5050923;28;20025;-68
2022/12/07 02:44:01;;;;;;;1.70;1.00;;;18.80;61.00;;;;;;5041705;28;20033;-68
2022/12/07 02:46:42;;;;;;;1.33;1.00;;;18.80;61.00;;;;;;5060530;28;20075;-68
2022/12/07 02:49:09;;;;;;;1.88;1.20;;;18.80;61.00;;;;;;5049524;28;20502;-68
2022/12/07 02:51:40;;;;;;;1.67;1.00;;;18.80;60.90;;;;;;5052389;28;20110;-68
2022/12/07 02:54:16;;;;;;;1.13;0.90;;;18.80;60.90;;;;;;5043874;28;20024;-68
2022/12/07 02:56:47;;;;;;;1.55;1.00;;;18.80;60.90;;;;;;5055467;28;20060;-68
2022/12/07 02:59:38;;;;;;;1.40;1.00;;;18.80;60.90;;;;;;5045379;28;20021;-69
2022/12/07 03:02:25;;;;;;;2.90;1.20;;;18.80;60.90;;;;;;5049817;28;20025;-68
2022/12/07 03:05:15;;;;;;;1.42;1.08;;;18.80;61.00;;;;;;5056219;28;20116;-68
2022/12/07 03:07:59;;;;;;;;;;;18.70;60.90;;;;;;5052572;28;20021;-68
2022/12/07 03:10:24;;;;;;;1.35;1.00;;;18.80;60.90;;;;;;5051541;28;20368;-68
2022/12/07 03:13:09;;;;;;;1.50;1.10;;;18.70;60.90;;;;;;5058802;28;20111;-68
2022/12/07 03:15:54;;;;;;;1.73;1.10;;;18.70;60.90;;;;;;5056340;28;20036;-68
2022/12/07 03:18:23;;;;;;;2.22;1.00;;;18.70;60.90;;;;;;5042725;28;20029;-68
2022/12/07 03:20:50;;;;;;;;;;;18.70;61.00;;;;;;5050155;28;20499;-68
2022/12/07 03:23:19;;;;;;;1.38;1.10;;;18.70;61.10;;;;;;5054920;28;20118;-68
2022/12/07 03:25:49;;;;;;;1.30;1.00;;;18.70;61.00;;;;;;5044778;28;20030;-68
2022/12/07 03:28:18;;;;;;;1.45;1.00;;;18.70;61.00;;;;;;5052867;28;20052;-69
2022/12/07 03:31:08;;;;;;;1.83;1.00;;;18.70;61.60;;;;;;5051105;28;20021;-68
2022/12/07 03:34:03;;;;;;;1.73;1.10;;;18.70;61.10;;;;;;5054100;28;20029;-68
2022/12/07 03:36:36;;;;;;;1.70;1.10;;;18.70;61.70;;;;;;5027185;28;20117;-67
2022/12/07 03:39:13;;;;;;;1.65;1.10;;;18.70;61.20;;;;;;5051633;28;20111;-68
2022/12/07 03:41:39;;;;;;;1.52;1.10;;;18.60;61.10;;;;;;5047567;28;20022;-68
2022/12/07 03:44:06;;;;;;;1.55;1.02;;;18.70;61.20;;;;;;5046784;28;20047;-68
2022/12/07 03:47:15;;;;;;;1.80;1.10;;;18.70;61.30;;;;;;5025260;28;20083;-69
2022/12/07 03:49:50;;;;;;;1.70;1.10;;;18.70;61.30;;;;;;5051589;28;20037;-69
2022/12/07 03:52:46;;;;;;;1.70;1.00;;;18.60;61.20;;;;;;5048698;28;20496;-69
2022/12/07 03:55:19;;;;;;;1.73;1.13;;;18.60;61.30;;;;;;5050494;28;20029;-69
2022/12/07 03:57:48;;;;;;;1.55;1.00;;;18.60;61.30;;;;;;5053905;28;20504;-68
2022/12/07 04:00:18;;;;;;;1.83;1.10;;;18.60;61.30;;;;;;5039150;28;20025;-68
2022/12/07 04:02:43;;;;;;;;;;;18.60;61.30;;;;;;5035811;28;20036;-68
2022/12/07 04:05:10;;;;;;;1.48;1.00;;;18.60;61.40;;;;;;5032341;28;20293;-68
2022/12/07 04:07:36;;;;;;;1.35;1.08;;;18.60;61.30;;;;;;5046473;28;20029;-68
2022/12/07 04:10:02;;;;;;;1.38;0.95;;;18.60;61.40;;;;;;5046120;28;20114;-68
2022/12/07 04:12:27;;;;;;;1.40;1.13;;;18.60;61.40;;;;;;5059126;28;20136;-68
2022/12/07 04:14:53;;;;;;;1.50;1.10;;;18.60;61.40;;;;;;5049720;28;20112;-68
2022/12/07 04:17:18;;;;;;;1.48;1.02;;;18.60;61.50;;;;;;5045023;28;20072;-68
2022/12/07 04:19:44;;;;;;;2.15;1.20;;;18.60;61.50;;;;;;5043316;28;20056;-68
2022/12/07 04:22:10;;;;;;;1.63;1.10;;;18.70;61.50;;;;;;5048882;28;20429;-68
2022/12/07 04:24:36;;;;;;;1.42;0.88;;;18.60;61.40;;;;;;5052188;28;20041;-68
2022/12/07 04:27:03;;;;;;;1.60;1.23;;;18.60;61.50;;;;;;5057085;28;20506;-68
2022/12/07 04:29:28;;;;;;;1.23;0.95;;;18.60;61.50;;;;;;5058680;28;20025;-68
2022/12/07 04:31:54;;;;;;;1.33;0.98;;;18.60;61.50;;;;;;5056940;28;20074;-68
2022/12/07 04:34:20;;;;;;;1.80;1.00;;;18.60;61.50;;;;;;5037741;28;20028;-68
2022/12/07 04:36:47;;;;;;;1.10;0.80;;;18.60;61.50;;;;;;5040245;28;20135;-69
2022/12/07 04:39:30;;;;;;;1.80;1.17;;;18.60;61.50;;;;;;5041157;28;20371;-69
2022/12/07 04:41:56;;;;;;;1.25;0.95;;;18.60;61.50;;;;;;5048580;28;20166;-68
2022/12/07 04:44:23;;;;;;;1.23;0.90;;;18.60;61.50;;;;;;5049938;28;20024;-69
2022/12/07 04:46:49;;;;;;;1.33;0.90;;;18.60;61.50;;;;;;5052562;28;20143;-68
2022/12/07 04:49:15;;;;;;;1.35;0.90;;;18.70;61.80;;;;;;5051909;28;20532;-68
2022/12/07 04:51:41;;;;;;;1.60;0.90;;;18.60;61.80;;;;;;5053754;28;20435;-68
2022/12/07 04:54:06;;;;;;;1.30;0.90;;;18.60;62.50;;;;;;5034370;28;20033;-68
2022/12/07 04:56:34;;;;;;;1.20;0.80;;;18.70;62.00;;;;;;5045844;28;20037;-68
2022/12/07 04:59:01;;;;;;;1.60;0.95;;;18.70;62.10;;;;;;5046997;28;20137;-68
2022/12/07 05:01:27;;;;;;;0.88;0.80;;;18.70;62.10;;;;;;5042160;28;20034;-68
2022/12/07 05:03:53;;;;;;;1.50;0.93;;;18.70;62.10;;;;;;5049905;28;20033;-68
2022/12/07 05:06:19;;;;;;;1.00;0.80;;;18.70;62.20;;;;;;5042538;28;20056;-68
2022/12/07 05:08:44;;;;;;;1.48;0.90;;;18.70;62.20;;;;;;5041065;28;20465;-68
2022/12/07 05:11:37;;;;;;;1.63;1.00;;;18.70;62.30;;;;;;5046704;28;20108;-68
2022/12/07 05:13:59;;;;;;;1.00;0.80;;;18.70;62.20;;;;;;5056777;28;20033;-68
2022/12/07 05:16:25;;;;;;;0.80;0.70;;;18.70;62.30;;;;;;5057739;28;20054;-68
2022/12/07 05:18:51;;;;;;;1.00;0.80;;;18.80;62.30;;;;;;5046531;28;20024;-68
2022/12/07 05:21:16;;;;;;;1.10;0.80;;;18.80;62.10;;;;;;5054961;28;20064;-68
2022/12/07 05:23:42;;;;;;;1.52;0.80;;;18.80;62.10;;;;;;5048919;28;20121;-68
2022/12/07 05:26:07;;;;;;;0.73;0.70;;;18.70;62.00;;;;;;5037442;28;20071;-68
2022/12/07 05:28:33;;;;;;;1.30;0.90;;;18.80;62.10;;;;;;5054088;28;20380;-67
2022/12/07 05:30:59;;;;;;;1.27;0.80;;;18.70;62.10;;;;;;5048617;28;20473;-68
2022/12/07 05:33:24;;;;;;;1.00;0.90;;;18.80;62.10;;;;;;5048327;28;20029;-68
2022/12/07 05:35:50;;;;;;;1.98;1.08;;;18.80;62.10;;;;;;5055283;28;20592;-68
2022/12/07 05:38:15;;;;;;;0.90;0.80;;;18.80;62.10;;;;;;5059482;28;20025;-68
2022/12/07 05:40:41;;;;;;;1.13;0.85;;;18.80;62.10;;;;;;5049528;28;20029;-68
2022/12/07 05:43:07;;;;;;;1.25;0.77;;;18.70;62.00;;;;;;5052026;28;20106;-68
2022/12/07 05:45:32;;;;;;;0.75;0.70;;;18.80;62.10;;;;;;5042917;28;20101;-69
2022/12/07 05:47:58;;;;;;;1.30;0.90;;;18.70;62.00;;;;;;5061098;28;20032;-68
2022/12/07 05:50:24;;;;;;;0.98;0.88;;;18.70;62.00;;;;;;5057301;28;20026;-69
2022/12/07 05:52:49;;;;;;;1.48;1.00;;;18.80;62.10;;;;;;5057241;28;20013;-68
2022/12/07 05:55:15;;;;;;;1.33;0.88;;;18.80;62.00;;;;;;5053262;28;20032;-68
2022/12/07 05:59:22;;;;;;;1.67;0.90;;;18.70;61.90;;;;;;5032694;28;20037;-67
2022/12/07 06:00:26;;;;;;;1.70;0.90;;;18.80;62.00;;;;;;5047524;28;20401;-68
2022/12/07 06:02:52;;;;;;;1.48;0.90;;;18.70;61.90;;;;;;5048670;28;20104;-69
2022/12/07 06:05:17;;;;;;;1.20;0.90;;;18.80;62.00;;;;;;5040739;28;20036;-68
2022/12/07 06:07:43;;;;;;;1.27;0.90;;;18.70;61.90;;;;;;5054692;28;20029;-68
2022/12/07 06:10:09;;;;;;;1.33;0.93;;;18.70;61.90;;;;;;5055905;28;20025;-69
2022/12/07 06:12:34;;;;;;;1.13;0.90;;;18.70;61.90;;;;;;5053940;28;20025;-68
2022/12/07 06:15:00;;;;;;;1.48;0.93;;;18.80;62.00;;;;;;5051268;28;20036;-69
2022/12/07 06:17:26;;;;;;;1.73;0.95;;;18.70;61.90;;;;;;5059466;28;20089;-68
2022/12/07 06:19:51;;;;;;;1.65;1.05;;;18.80;61.90;;;;;;5045645;28;20030;-69
2022/12/07 06:22:17;;;;;;;2.22;1.05;;;18.80;61.90;;;;;;5038832;28;20043;-69
2022/12/07 06:24:43;;;;;;;1.42;0.90;;;18.70;61.80;;;;;;5053963;28;20063;-68
2022/12/07 06:27:10;;;;;;;1.80;0.95;;;18.70;61.80;;;;;;5044927;28;20033;-69
2022/12/07 06:29:36;;;;;;;1.90;0.90;;;18.70;61.80;;;;;;5049009;28;20020;-68
2022/12/07 06:32:02;;;;;;;1.70;1.08;;;18.70;61.80;;;;;;5052566;28;20025;-68
2022/12/07 06:34:27;;;;;;;2.08;1.00;;;18.70;61.80;;;;;;5050717;28;20148;-69
2022/12/07 06:36:54;;;;;;;1.70;1.00;;;18.70;61.80;;;;;;5049945;28;20029;-69
2022/12/07 06:39:27;;;;;;;2.30;1.00;;;18.70;61.80;;;;;;5052725;28;20028;-69
2022/12/07 06:41:53;;;;;;;1.80;1.00;;;18.80;61.80;;;;;;5056345;28;20036;-69
2022/12/07 06:44:20;;;;;;;1.60;0.90;;;18.80;61.80;;;;;;5057118;28;20551;-68
2022/12/07 06:46:46;;;;;;;2.05;0.85;;;18.80;61.80;;;;;;5058381;28;20023;-68
2022/12/07 06:49:12;;;;;;;1.40;0.90;;;18.70;61.60;;;;;;5040694;28;20021;-69
2022/12/07 06:51:40;;;;;;;1.45;1.00;;;18.70;61.70;;;;;;5060724;28;20436;-69
2022/12/07 06:54:08;;;;;;;2.42;0.90;;;18.80;61.70;;;;;;5058051;28;20032;-68
2022/12/07 06:56:33;;;;;;;1.90;1.00;;;18.70;61.60;;;;;;5037596;28;20428;-69
2022/12/07 06:58:59;;;;;;;1.77;1.02;;;18.80;61.70;;;;;;5044777;28;20024;-68
2022/12/07 07:01:25;;;;;;;2.70;0.93;;;18.70;61.60;;;;;;5050044;28;20032;-69
2022/12/07 07:03:50;;;;;;;2.47;1.23;;;18.70;61.60;;;;;;5040291;28;20017;-68
2022/12/07 07:06:16;;;;;;;1.38;1.00;;;18.70;61.60;;;;;;5053291;28;20656;-69
2022/12/07 07:08:42;;;;;;;1.50;1.02;;;18.70;61.60;;;;;;5040121;28;20250;-68
2022/12/07 07:11:08;;;;;;;2.45;1.38;;;18.70;61.60;;;;;;5048899;28;20037;-68
2022/12/07 07:13:34;;;;;;;1.75;1.10;;;18.70;61.50;;;;;;5048637;28;20615;-69
2022/12/07 07:16:00;;;;;;;1.92;1.00;;;18.70;61.60;;;;;;5049871;28;20052;-69
2022/12/07 07:18:26;;;;;;;2.00;1.20;;;18.70;61.50;;;;;;5037705;28;20038;-68
2022/12/07 07:20:52;;;;;;;2.75;1.00;;;18.70;61.50;;;;;;5055392;28;20025;-69
2022/12/07 07:23:19;;;;;;;2.10;0.90;;;18.70;61.50;;;;;;5053165;28;20107;-68
2022/12/07 07:25:45;;;;;;;1.10;0.90;;;18.70;61.50;;;;;;5055785;28;20565;-68
2022/12/07 07:28:10;;;;;;;2.20;1.13;;;18.70;61.50;;;;;;5053685;28;20067;-68
2022/12/07 07:30:39;;;;;;;2.08;1.20;;;18.70;61.50;;;;;;5045119;28;20423;-68
2022/12/07 07:33:05;;;;;;;2.55;1.00;;;18.70;61.50;;;;;;5041227;28;20109;-68
2022/12/07 07:35:33;;;;;;;2.17;1.08;;;18.70;61.50;;;;;;5054159;28;20123;-69
2022/12/07 07:37:59;;;;;;;1.73;0.90;;;18.70;61.40;;;;;;5050014;28;20417;-69
2022/12/07 07:40:26;;;;;;;1.83;1.15;;;18.70;61.40;;;;;;5035072;28;20053;-69
2022/12/07 07:42:53;;;;;;;2.22;1.25;;;18.70;61.40;;;;;;5049147;28;20037;-69
2022/12/07 07:45:21;;;;;;;2.13;1.20;;;18.70;61.40;;;;;;5049783;28;20480;-68
2022/12/07 07:47:46;;;;;;;1.75;1.10;;;18.70;61.40;;;;;;5049012;28;20109;-68
2022/12/07 07:50:12;;;;;;;1.95;1.10;;;18.70;61.40;;;;;;5050653;28;20099;-68
2022/12/07 07:52:38;;;;;;;1.63;1.00;;;18.70;61.40;;;;;;5056451;28;20025;-69
2022/12/07 07:55:04;;;;;;;2.25;1.30;;;18.70;61.40;;;;;;5044899;28;20036;-68
2022/12/07 07:57:30;;;;;;;1.73;1.05;;;18.70;61.30;;;;;;5048156;28;20097;-69
2022/12/07 07:59:56;;;;;;;1.67;0.95;;;18.70;61.40;;;;;;5059760;28;20107;-68
2022/12/07 08:02:22;;;;;;;1.80;1.10;;;18.70;61.30;;;;;;5049156;28;20029;-69
2022/12/07 08:04:47;;;;;;;2.92;1.42;;;18.70;61.90;;;;;;5046791;28;20040;-68
2022/12/07 08:07:14;;;;;;;1.83;1.00;;;18.70;61.30;;;;;;5044626;28;20037;-68
2022/12/07 08:09:40;;;;;;;1.77;1.10;;;18.70;61.30;;;;;;5046408;28;20064;-68
2022/12/07 08:12:06;;;;;;;2.70;1.20;;;18.70;61.30;;;;;;5039784;28;20077;-69
2022/12/07 08:14:32;;;;;;;2.30;1.20;;;18.70;61.30;;;;;;5047975;28;20037;-69
2022/12/07 08:16:58;;;;;;;2.00;1.10;;;18.70;61.30;;;;;;5034256;28;20458;-68
2022/12/07 08:19:24;;;;;;;1.70;0.93;;;18.70;61.30;;;;;;5047576;28;20029;-68
2022/12/07 08:21:49;;;;;;;2.25;1.42;;;18.70;61.30;;;;;;5045459;28;20043;-68
2022/12/07 08:24:15;;;;;;;2.03;1.20;;;18.70;61.30;;;;;;5046909;28;20029;-69
2022/12/07 08:26:41;;;;;;;2.20;1.15;;;18.70;61.30;;;;;;5050935;28;20074;-69
2022/12/07 08:29:07;;;;;;;2.55;1.10;;;18.70;61.30;;;;;;5046255;28;20025;-68
2022/12/07 08:31:33;;;;;;;2.30;1.30;;;18.70;61.20;;;;;;5046738;28;20075;-69
2022/12/07 08:33:58;;;;;;;2.25;1.20;;;18.70;61.20;;;;;;5054546;28;20108;-68
2022/12/07 08:36:25;;;;;;;2.60;1.30;;;18.70;61.20;;;;;;5043669;28;20025;-69
2022/12/07 08:38:50;;;;;;;2.33;1.15;;;18.70;61.20;;;;;;5046947;28;20021;-69
2022/12/07 08:41:16;;;;;;;1.88;1.15;;;18.70;61.20;;;;;;5050368;28;20076;-69
2022/12/07 08:43:42;;;;;;;1.58;1.00;;;18.70;61.20;;;;;;5048703;28;20098;-69
2022/12/07 08:46:40;;;;;;;1.98;1.17;;;18.70;61.20;;;;;;5052671;28;20028;-69
2022/12/07 08:49:13;;;;;;;2.00;1.10;;;18.70;61.20;;;;;;5052806;28;20486;-68
2022/12/07 08:51:40;;;;;;;1.73;1.00;;;18.70;61.20;;;;;;5047054;28;20036;-68
2022/12/07 08:54:10;;;;;;;2.28;1.10;;;18.70;61.20;;;;;;5050121;28;20086;-69
2022/12/07 08:56:36;;;;;;;1.85;1.23;;;18.70;61.20;;;;;;5046544;28;20108;-69
2022/12/07 08:59:03;;;;;;;1.60;1.00;;;18.70;61.20;;;;;;5045343;28;20028;-68
2022/12/07 09:01:29;;;;;;;2.17;1.30;;;18.70;61.20;;;;;;5049224;28;20052;-69
2022/12/07 09:03:55;;;;;;;1.65;1.10;;;18.70;61.20;;;;;;5051370;28;20024;-68
2022/12/07 09:06:21;;;;;;;2.03;1.00;;;18.70;61.20;;;;;;5037231;28;20078;-68
2022/12/07 09:08:53;;;;;;;2.00;1.10;;;18.70;61.10;;;;;;5048062;28;20064;-69
2022/12/07 09:11:19;;;;;;;1.52;1.00;;;18.70;61.10;;;;;;5051345;28;20559;-69
2022/12/07 09:13:44;;;;;;;3.05;1.10;;;18.70;61.10;;;;;;5053777;28;20104;-68
2022/12/07 09:16:10;;;;;;;2.30;1.23;;;18.70;61.10;;;;;;5056040;28;20030;-69
2022/12/07 09:18:36;;;;;;;2.60;0.93;;;18.70;61.10;;;;;;5050582;28;20418;-68
2022/12/07 09:21:02;;;;;;;1.65;1.00;;;18.70;61.10;;;;;;5052392;28;20029;-68
2022/12/07 09:23:27;;;;;;;1.77;1.10;;;18.70;61.10;;;;;;5038197;28;20116;-68
2022/12/07 09:25:53;;;;;;;2.88;1.08;;;18.70;61.10;;;;;;5048239;28;20543;-68
2022/12/07 09:28:18;;;;;;;1.60;0.93;;;18.70;61.10;;;;;;5043497;28;20059;-69
2022/12/07 09:30:48;;;;;;;1.80;1.10;;;18.70;61.10;;;;;;5043083;28;20032;-68
2022/12/07 09:33:15;;;;;;;2.08;1.10;;;18.70;61.00;;;;;;5050543;28;20045;-69
2022/12/07 09:35:48;;;;;;;1.63;0.98;;;18.70;61.00;;;;;;5051311;28;20108;-68
2022/12/07 09:38:14;;;;;;;2.03;1.20;;;18.70;61.00;;;;;;5049352;28;20029;-68
2022/12/07 09:40:43;;;;;;;1.70;1.10;;;18.70;61.00;;;;;;5043513;28;20549;-69
2022/12/07 09:43:29;;;;;;;2.42;1.15;;;18.70;61.00;;;;;;5055569;28;20024;-69
2022/12/07 09:45:56;;;;;;;2.25;1.20;;;18.70;61.10;;;;;;5043648;28;20440;-69
2022/12/07 09:48:36;;;;;;;1.80;1.00;;;18.70;61.00;;;;;;5047512;28;20033;-69
2022/12/07 09:51:11;;;;;;;1.70;1.08;;;18.70;61.00;;;;;;5052115;28;20024;-68
2022/12/07 09:53:38;;;;;;;1.77;1.00;;;18.70;61.10;;;;;;5052557;28;20072;-69
2022/12/07 09:56:04;;;;;;;2.25;1.30;;;18.70;61.00;;;;;;5048275;28;20033;-68
2022/12/07 09:58:33;;;;;;;1.77;1.08;;;18.70;61.00;;;;;;5047618;28;20512;-68
2022/12/07 10:01:19;;;;;;;2.05;1.10;;;18.70;61.00;;;;;;5056850;28;20032;-68
2022/12/07 10:04:00;;;;;;;1.50;1.00;;;18.70;61.10;;;;;;5054251;28;20116;-68
2022/12/07 10:06:26;;;;;;;1.48;1.00;;;18.70;61.00;;;;;;5053242;28;20032;-68
2022/12/07 10:08:51;;;;;;;2.13;1.20;;;18.70;61.00;;;;;;5048419;28;20025;-68
2022/12/07 10:11:17;;;;;;;1.83;1.10;;;18.70;61.00;;;;;;5053957;28;20037;-69
2022/12/07 10:13:50;;;;;;;1.90;1.10;;;18.70;61.00;;;;;;5056221;28;20468;-68
2022/12/07 10:16:27;;;;;;;1.98;1.20;;;18.70;61.00;;;;;;5056828;28;20047;-68
2022/12/07 10:18:54;;;;;;;1.35;0.90;;;18.70;61.00;;;;;;5060843;28;20092;-68
2022/12/07 10:21:24;;;;;;;1.98;1.23;;;18.70;61.00;;;;;;5048002;28;20496;-68
2022/12/07 10:24:00;;;;;;;1.30;1.00;;;18.70;61.00;;;;;;5049622;28;20162;-68
2022/12/07 10:26:46;;;;;;;1.55;1.00;;;18.70;61.00;;;;;;5025793;28;20032;-68
2022/12/07 10:29:15;;;;;;;1.42;1.02;;;18.70;60.90;;;;;;5046476;28;20075;-69
2022/12/07 10:31:41;;;;;;;1.83;1.00;;;18.70;61.00;;;;;;5051925;28;20411;-68
2022/12/07 10:34:26;;;;;;;1.90;1.20;;;18.70;60.90;;;;;;5042770;28;20401;-68
2022/12/07 10:36:53;;;;;;;1.95;1.17;;;18.70;60.90;;;;;;5049750;28;20090;-68
2022/12/07 10:39:23;;;;;;;1.80;1.00;;;18.70;60.90;;;;;;5039139;28;20469;-68
2022/12/07 10:41:59;;;;;;;1.50;1.00;;;18.70;60.90;;;;;;5046400;28;20044;-68
2022/12/07 10:44:34;;;;;;;2.50;1.08;;;18.70;60.90;;;;;;5045227;28;20057;-68
2022/12/07 10:47:18;;;;;;;1.60;1.00;;;18.70;60.90;;;;;;5055826;28;20012;-67
2022/12/07 10:50:14;;;;;;;1.95;1.30;;;18.70;60.90;;;;;;5051225;28;20026;-68
2022/12/07 10:53:05;;;;;;;1.83;1.00;;;18.70;60.90;;;;;;5048067;28;20108;-68
2022/12/07 10:56:04;;;;;;;1.65;1.20;;;18.80;60.90;;;;;;5049643;28;20032;-69
2022/12/07 10:58:48;;;;;;;1.65;1.10;;;18.80;61.50;;;;;;5033664;28;20521;-68
2022/12/07 11:01:43;;;;;;;1.88;1.10;;;18.70;60.80;;;;;;5057327;28;20032;-68
2022/12/07 11:04:42;;;;;;;1.45;0.90;;;18.70;60.90;;;;;;5060944;28;20492;-68
2022/12/07 11:07:11;;;;;;;1.60;1.00;;;18.70;60.90;;;;;;5051781;28;20025;-68
2022/12/07 11:10:07;;;;;;;1.35;0.88;;;18.70;60.90;;;;;;5049524;28;20094;-68
2022/12/07 11:13:13;;;;;;;1.58;1.00;;;18.70;60.80;;;;;;5029245;28;20028;-68
2022/12/07 11:16:09;;;;;;;1.63;1.20;;;18.70;60.90;;;;;;5047229;28;20385;-68
2022/12/07 11:18:55;;;;;;;1.75;1.02;;;18.70;60.80;;;;;;5048482;28;20028;-68
2022/12/07 11:21:34;;;;;;;1.92;1.10;;;18.70;60.90;;;;;;5055441;28;20529;-68
2022/12/07 11:24:06;;;;;;;2.05;1.20;;;18.70;60.90;;;;;;5045621;28;20032;-67
2022/12/07 11:26:40;;;;;;;2.28;1.10;;;18.70;60.80;;;;;;5054547;28;20119;-69
2022/12/07 11:29:18;;;;;;;1.70;1.10;;;18.70;60.90;;;;;;5051085;28;20037;-68
2022/12/07 11:32:19;;;;;;;1.70;0.90;;;18.70;60.80;;;;;;5046603;28;20044;-68
2022/12/07 11:35:02;;;;;;;1.70;1.20;;;18.70;60.80;;;;;;5045246;28;20476;-68
2022/12/07 11:37:34;;;;;;;1.77;1.13;;;18.70;60.80;;;;;;5048626;28;20442;-68
2022/12/07 11:40:04;;;;;;;1.90;1.02;;;18.70;60.80;;;;;;5048793;28;20029;-68
2022/12/07 11:42:36;;;;;;;1.65;1.05;;;18.70;61.50;;;;;;5052641;28;20388;-68
2022/12/07 11:45:26;;;;;;;2.90;1.10;;;18.70;62.40;;;;;;5045158;28;20052;-69
2022/12/07 11:47:58;;;;;;;2.42;1.13;;;18.70;61.40;;;;;;5046763;28;20062;-67
2022/12/07 11:50:29;;;;;;;1.52;1.00;;;18.70;61.10;;;;;;5043714;28;20471;-67
2022/12/07 11:53:09;;;;;;;1.30;1.00;;;18.80;61.70;;;;;;5038272;28;20021;-67
2022/12/07 11:56:05;;;;;;;2.05;0.90;;;18.70;61.00;;;;;;5056029;28;20051;-66
2022/12/07 11:58:54;;;;;;;1.80;1.13;;;18.70;60.90;;;;;;5034398;28;20045;-67
2022/12/07 12:01:54;;;;;;;1.70;1.00;;;18.80;61.00;;;;;;5043481;28;20495;-67
2022/12/07 12:04:32;;;;;;;1.55;1.05;;;18.80;60.90;;;;;;5014447;28;20060;-67
2022/12/07 12:06:58;;;;;;;2.08;0.90;;;18.70;60.90;;;;;;5040922;28;20024;-67
2022/12/07 12:09:49;;;;;;;2.15;1.20;;;18.70;60.80;;;;;;5048176;28;20421;-67
2022/12/07 12:12:34;;;;;;;1.38;1.00;;;18.70;60.90;;;;;;5054902;28;20107;-67
2022/12/07 12:15:11;;;;;;;1.88;1.10;;;18.70;60.80;;;;;;5054248;28;20056;-67
2022/12/07 12:18:14;;;;;;;2.28;1.10;;;18.70;60.80;;;;;;5051219;28;20436;-67
2022/12/07 12:20:57;;;;;;;1.33;0.90;;;18.70;60.90;;;;;;5048042;28;20032;-68
2022/12/07 12:23:35;;;;;;;1.55;1.05;;;18.80;60.90;;;;;;5043605;28;20488;-69
2022/12/07 12:26:04;;;;;;;1.95;1.10;;;18.70;60.80;;;;;;5055167;28;20025;-67
2022/12/07 12:28:40;;;;;;;1.30;1.05;;;18.80;60.80;;;;;;5056643;28;20113;-67
2022/12/07 12:31:13;;;;;;;2.03;1.00;;;18.70;60.80;;;;;;5058203;28;20472;-67
2022/12/07 12:33:50;;;;;;;2.25;1.20;;;18.70;60.80;;;;;;5038651;28;20492;-68
2022/12/07 12:36:15;;;;;;;1.88;1.20;;;18.80;60.80;;;;;;5048885;28;20032;-68
2022/12/07 12:39:08;;;;;;;2.47;1.00;;;18.70;60.80;;;;;;5052488;28;20119;-68
2022/12/07 12:44:23;;;;;;;1.93;1.13;;;18.70;60.70;;;;;;5059711;28;20482;-68
2022/12/07 12:47:02;;;;;;;2.40;1.10;;;18.80;60.80;;;;;;5054513;28;20266;-68
2022/12/07 12:49:43;;;;;;;2.40;1.13;;;18.80;60.80;;;;;;5054175;28;20598;-67
2022/12/07 12:52:14;;;;;;;2.10;1.17;;;18.80;60.80;;;;;;5040685;28;20078;-69
2022/12/07 12:55:01;;;;;;;1.83;1.15;;;18.80;60.80;;;;;;5055831;28;20142;-68
2022/12/07 12:57:30;;;;;;;2.72;1.40;;;18.80;60.80;;;;;;5045861;28;20593;-69
2022/12/07 13:00:03;;;;;;;1.90;1.10;;;18.80;60.80;;;;;;5046699;28;20029;-69
2022/12/07 13:02:32;;;;;;;3.10;1.40;;;18.80;60.80;;;;;;5050868;28;20120;-68
2022/12/07 13:05:07;;;;;;;3.17;1.40;;;18.80;60.80;;;;;;5046164;28;20072;-68
2022/12/07 13:07:51;;;;;;;4.20;1.50;;;18.80;60.90;;;;;;5055347;28;20103;-68
2022/12/07 13:10:23;;;;;;;2.80;1.23;;;18.80;60.90;;;;;;5050488;28;20032;-68
2022/12/07 13:13:19;;;;;;;2.53;1.23;;;18.80;60.80;;;;;;5050740;28;20021;-68